Time;durP1;ratioP1;P1;durP2;ratioP2;P2;SDS_P1;SDS_P2;PMS_P1;PMS_P2;Temp;Humidity;BMP_temperature;BMP_pressure;BME280_temperature;BME280_humidity;BME280_pressure;Samples;Min_cycle;Max_cycle;Signal;HPM_P1;HPM_P2
2023/03/13 00:01:59;;;;;;;0.10;0.10;;;;;;;;;;4992786;28;20597;-72
2023/03/13 00:04:27;;;;;;;0.20;0.20;;;;;;;;;;5003955;28;20383;-71
2023/03/13 00:06:54;;;;;;;0.13;0.13;;;;;;;;;;4992977;28;20279;-72
2023/03/13 00:09:21;;;;;;;0.10;0.10;;;;;;;;;;5004329;28;20244;-71
2023/03/13 00:11:48;;;;;;;0.10;0.10;;;;;;;;;;4996939;28;20268;-72
2023/03/13 00:14:14;;;;;;;0.37;0.37;;;;;;;;;;5007257;28;20215;-72
2023/03/13 00:16:40;;;;;;;0.20;0.20;;;;;;;;;;4996896;28;20503;-72
2023/03/13 00:19:07;;;;;;;0.10;0.10;;;;;;;;;;5007448;28;20433;-71
2023/03/13 00:21:37;;;;;;;0.50;0.50;;;;;;;;;;4996722;28;20243;-71
2023/03/13 00:24:03;;;;;;;0.10;0.10;;;;;;;;;;5006941;28;20288;-71
2023/03/13 00:26:30;;;;;;;0.10;0.10;;;;;;;;;;4996828;28;20247;-71
2023/03/13 00:28:57;;;;;;;0.13;0.13;;;;;;;;;;5006871;28;20243;-70
2023/03/13 00:31:24;;;;;;;0.20;0.20;;;;;;;;;;4996791;28;20492;-71
2023/03/13 00:33:51;;;;;;;0.10;0.10;;;;;;;;;;5006761;28;20275;-71
2023/03/13 00:36:18;;;;;;;0.10;0.10;;;;;;;;;;4996693;28;20248;-71
2023/03/13 00:38:46;;;;;;;0.10;0.10;;;;;;;;;;5006618;28;20208;-71
2023/03/13 00:41:14;;;;;;;0.10;0.10;;;;;;;;;;4996787;28;20431;-72
2023/03/13 00:43:41;;;;;;;0.17;0.17;;;;;;;;;;5006527;28;20238;-73
2023/03/13 00:46:07;;;;;;;0.20;0.20;;;;;;;;;;4996680;28;20306;-71
2023/03/13 00:48:33;;;;;;;0.10;0.10;;;;;;;;;;5006408;28;20208;-71
2023/03/13 00:51:00;;;;;;;0.10;0.10;;;;;;;;;;4996660;28;20293;-71
2023/03/13 00:53:26;;;;;;;0.10;0.10;;;;;;;;;;5006291;28;20214;-71
2023/03/13 00:55:55;;;;;;;0.87;0.87;;;;;;;;;;4996437;28;20326;-71
2023/03/13 00:58:22;;;;;;;0.10;0.10;;;;;;;;;;5006383;28;20272;-72
2023/03/13 01:00:48;;;;;;;0.57;0.57;;;;;;;;;;4996759;28;20257;-72
2023/03/13 01:03:15;;;;;;;0.10;0.10;;;;;;;;;;5006006;28;20264;-71
2023/03/13 01:05:41;;;;;;;0.10;0.10;;;;;;;;;;4996745;28;20448;-70
2023/03/13 01:08:08;;;;;;;0.10;0.10;;;;;;;;;;5006049;28;20263;-71
2023/03/13 01:10:34;;;;;;;0.10;0.10;;;;;;;;;;4996479;28;20248;-71
2023/03/13 01:13:03;;;;;;;0.10;0.10;;;;;;;;;;5005671;28;20208;-71
2023/03/13 01:15:30;;;;;;;0.10;0.10;;;;;;;;;;4996581;28;20291;-71
2023/03/13 01:17:56;;;;;;;0.10;0.10;;;;;;;;;;5005464;28;20275;-70
2023/03/13 01:20:22;;;;;;;0.20;0.20;;;;;;;;;;4996070;28;20271;-72
2023/03/13 01:22:49;;;;;;;0.10;0.10;;;;;;;;;;5005406;28;20196;-72
2023/03/13 01:25:16;;;;;;;0.13;0.13;;;;;;;;;;4996529;28;20238;-72
2023/03/13 01:27:43;;;;;;;0.10;0.10;;;;;;;;;;5005538;28;20199;-72
2023/03/13 01:30:11;;;;;;;0.10;0.10;;;;;;;;;;4996511;28;20253;-71
2023/03/13 01:32:38;;;;;;;0.10;0.10;;;;;;;;;;5005385;28;20191;-73
2023/03/13 01:35:05;;;;;;;0.10;0.10;;;;;;;;;;5006256;28;20211;-73
2023/03/13 01:37:31;;;;;;;0.10;0.10;;;;;;;;;;4995156;28;20483;-72
2023/03/13 01:39:58;;;;;;;0.10;0.10;;;;;;;;;;5005843;28;20284;-72
2023/03/13 01:42:24;;;;;;;0.10;0.10;;;;;;;;;;4995088;28;20350;-73
2023/03/13 01:44:51;;;;;;;0.10;0.10;;;;;;;;;;5006018;28;20279;-73
2023/03/13 01:47:19;;;;;;;1.57;1.50;;;;;;;;;;4994959;28;20244;-72
2023/03/13 01:49:45;;;;;;;0.10;0.10;;;;;;;;;;5005980;28;20236;-73
2023/03/13 01:52:14;;;;;;;0.10;0.10;;;;;;;;;;4994746;28;20264;-73
2023/03/13 01:54:42;;;;;;;0.13;0.13;;;;;;;;;;5005918;28;20275;-72
2023/03/13 01:57:11;;;;;;;0.10;0.10;;;;;;;;;;4994378;28;20247;-73
2023/03/13 01:59:40;;;;;;;0.33;0.33;;;;;;;;;;5005791;28;20275;-73
2023/03/13 02:02:07;;;;;;;0.20;0.20;;;;;;;;;;4994561;28;20266;-74
2023/03/13 02:04:36;;;;;;;0.10;0.10;;;;;;;;;;5005404;28;20276;-72
2023/03/13 02:07:05;;;;;;;0.10;0.10;;;;;;;;;;4994495;28;20307;-72
2023/03/13 02:09:32;;;;;;;0.10;0.10;;;;;;;;;;5005452;28;20215;-73
2023/03/13 02:12:01;;;;;;;0.43;0.43;;;;;;;;;;4994526;28;20424;-73
2023/03/13 02:14:28;;;;;;;0.10;0.10;;;;;;;;;;5005322;28;20229;-72
2023/03/13 02:16:55;;;;;;;0.10;0.10;;;;;;;;;;4994326;28;20295;-72
2023/03/13 02:19:27;;;;;;;0.10;0.10;;;;;;;;;;5005117;28;20235;-72
2023/03/13 02:21:57;;;;;;;0.10;0.10;;;;;;;;;;4994291;28;20317;-73
2023/03/13 02:24:29;;;;;;;0.20;0.20;;;;;;;;;;5005168;28;20243;-72
2023/03/13 02:26:57;;;;;;;0.10;0.10;;;;;;;;;;4994340;28;20624;-73
2023/03/13 02:29:25;;;;;;;0.13;0.13;;;;;;;;;;5005074;28;20212;-72
2023/03/13 02:31:51;;;;;;;0.20;0.20;;;;;;;;;;4993450;28;20489;-73
2023/03/13 02:34:21;;;;;;;0.10;0.10;;;;;;;;;;5004990;28;20243;-72
2023/03/13 02:36:47;;;;;;;0.10;0.10;;;;;;;;;;4994103;28;20243;-73
2023/03/13 02:39:16;;;;;;;0.20;0.20;;;;;;;;;;5004682;28;20215;-72
2023/03/13 02:41:44;;;;;;;0.10;0.10;;;;;;;;;;4994080;28;20238;-72
2023/03/13 02:44:12;;;;;;;0.10;0.10;;;;;;;;;;5004771;28;20237;-72
2023/03/13 02:46:45;;;;;;;0.20;0.20;;;;;;;;;;4994106;28;20255;-73
2023/03/13 02:49:23;;;;;;;0.20;0.20;;;;;;;;;;5004416;28;20278;-72
2023/03/13 02:51:51;;;;;;;0.10;0.10;;;;;;;;;;4993963;28;20239;-72
2023/03/13 02:54:19;;;;;;;0.20;0.20;;;;;;;;;;5004506;28;20206;-72
2023/03/13 02:56:47;;;;;;;0.10;0.10;;;;;;;;;;4993893;28;20533;-72
2023/03/13 02:59:15;;;;;;;0.10;0.10;;;;;;;;;;5004264;28;20590;-72
2023/03/13 03:01:42;;;;;;;0.10;0.10;;;;;;;;;;4993774;28;20243;-73
2023/03/13 03:04:08;;;;;;;0.10;0.10;;;;;;;;;;5004153;28;20239;-73
2023/03/13 03:06:34;;;;;;;0.20;0.20;;;;;;;;;;4993759;28;20255;-72
2023/03/13 03:09:01;;;;;;;0.10;0.10;;;;;;;;;;5004274;28;20448;-69
2023/03/13 03:11:27;;;;;;;0.50;0.50;;;;;;;;;;4993888;28;20629;-73
2023/03/13 03:13:54;;;;;;;0.10;0.10;;;;;;;;;;5004199;28;20277;-72
2023/03/13 03:16:22;;;;;;;0.20;0.20;;;;;;;;;;4993702;28;20276;-73
2023/03/13 03:18:48;;;;;;;1.43;1.33;;;;;;;;;;5003857;28;20245;-72
2023/03/13 03:21:14;;;;;;;0.10;0.10;;;;;;;;;;4993992;28;20258;-72
2023/03/13 03:23:41;;;;;;;0.10;0.10;;;;;;;;;;5003658;28;20246;-73
2023/03/13 03:26:07;;;;;;;0.10;0.10;;;;;;;;;;4993915;28;20257;-72
2023/03/13 03:28:34;;;;;;;0.10;0.10;;;;;;;;;;5003603;28;20241;-72
2023/03/13 03:31:03;;;;;;;0.10;0.10;;;;;;;;;;4993998;28;20308;-72
2023/03/13 03:33:31;;;;;;;0.10;0.10;;;;;;;;;;5003865;28;20481;-72
2023/03/13 03:35:59;;;;;;;0.20;0.20;;;;;;;;;;4993960;28;20250;-72
2023/03/13 03:38:25;;;;;;;0.10;0.10;;;;;;;;;;5003714;28;20206;-72
2023/03/13 03:40:52;;;;;;;0.10;0.10;;;;;;;;;;4993986;28;20240;-72
2023/03/13 03:43:18;;;;;;;0.40;0.40;;;;;;;;;;5004032;28;20237;-72
2023/03/13 03:45:45;;;;;;;0.10;0.10;;;;;;;;;;4998162;28;20263;-72
2023/03/13 03:48:11;;;;;;;0.17;0.17;;;;;;;;;;5007543;28;20450;-72
2023/03/13 03:50:39;;;;;;;0.10;0.10;;;;;;;;;;4998143;28;20262;-72
2023/03/13 03:53:05;;;;;;;0.10;0.10;;;;;;;;;;5007145;28;20268;-72
2023/03/13 03:55:31;;;;;;;0.10;0.10;;;;;;;;;;4997931;28;20313;-72
2023/03/13 03:57:58;;;;;;;0.10;0.10;;;;;;;;;;5007246;28;20256;-72
2023/03/13 04:00:24;;;;;;;0.10;0.10;;;;;;;;;;4998081;28;20241;-73
2023/03/13 04:02:51;;;;;;;0.10;0.10;;;;;;;;;;5007214;28;20512;-72
2023/03/13 04:05:17;;;;;;;0.87;0.83;;;;;;;;;;4998070;28;20386;-72
2023/03/13 04:07:45;;;;;;;0.30;0.30;;;;;;;;;;5006734;28;20229;-73
2023/03/13 04:10:11;;;;;;;0.10;0.10;;;;;;;;;;4997581;28;20277;-72
2023/03/13 04:12:38;;;;;;;0.10;0.10;;;;;;;;;;5006796;28;20260;-73
2023/03/13 04:15:04;;;;;;;0.10;0.10;;;;;;;;;;5007911;28;20241;-72
2023/03/13 04:17:31;;;;;;;0.10;0.10;;;;;;;;;;4996609;28;20302;-73
2023/03/13 04:19:57;;;;;;;0.10;0.10;;;;;;;;;;5007801;28;20234;-72
2023/03/13 04:22:23;;;;;;;0.10;0.10;;;;;;;;;;4996496;28;20314;-73
2023/03/13 04:24:52;;;;;;;0.10;0.10;;;;;;;;;;5007334;28;20209;-72
2023/03/13 04:27:18;;;;;;;0.10;0.10;;;;;;;;;;4996464;28;20250;-73
2023/03/13 04:29:45;;;;;;;0.10;0.10;;;;;;;;;;5007662;28;20427;-73
2023/03/13 04:32:11;;;;;;;0.10;0.10;;;;;;;;;;4996427;28;20259;-73
2023/03/13 04:34:38;;;;;;;0.10;0.10;;;;;;;;;;5007179;28;20223;-72
2023/03/13 04:37:04;;;;;;;0.17;0.17;;;;;;;;;;4996288;28;20266;-72
2023/03/13 04:39:30;;;;;;;0.10;0.10;;;;;;;;;;5007607;28;20245;-73
2023/03/13 04:41:58;;;;;;;0.17;0.17;;;;;;;;;;4996254;28;20247;-72
2023/03/13 04:44:24;;;;;;;0.10;0.10;;;;;;;;;;5006990;28;20281;-72
2023/03/13 04:46:51;;;;;;;0.10;0.10;;;;;;;;;;4996236;28;20242;-72
2023/03/13 04:49:17;;;;;;;0.27;0.27;;;;;;;;;;5006755;28;20277;-72
2023/03/13 04:51:45;;;;;;;0.20;0.20;;;;;;;;;;4996187;28;20438;-72
2023/03/13 04:54:11;;;;;;;0.10;0.10;;;;;;;;;;5006639;28;20206;-72
2023/03/13 04:56:38;;;;;;;0.20;0.20;;;;;;;;;;4995042;28;20303;-72
2023/03/13 04:59:05;;;;;;;0.10;0.10;;;;;;;;;;5006302;28;20281;-72
2023/03/13 05:01:32;;;;;;;0.10;0.10;;;;;;;;;;4995959;28;20303;-72
2023/03/13 05:03:58;;;;;;;0.10;0.10;;;;;;;;;;5006147;28;20210;-72
2023/03/13 05:06:24;;;;;;;0.10;0.10;;;;;;;;;;4996210;28;20502;-72
2023/03/13 05:08:51;;;;;;;0.10;0.10;;;;;;;;;;5006352;28;20453;-71
2023/03/13 05:11:17;;;;;;;0.10;0.10;;;;;;;;;;4996107;28;20247;-72
2023/03/13 05:13:44;;;;;;;0.30;0.30;;;;;;;;;;5006045;28;20239;-73
2023/03/13 05:16:11;;;;;;;0.10;0.10;;;;;;;;;;4996253;28;20622;-72
2023/03/13 05:18:38;;;;;;;0.10;0.10;;;;;;;;;;5006162;28;20242;-72
2023/03/13 05:21:05;;;;;;;0.10;0.10;;;;;;;;;;4996123;28;20243;-73
2023/03/13 05:23:31;;;;;;;0.10;0.10;;;;;;;;;;5005768;28;20206;-73
2023/03/13 05:25:58;;;;;;;0.10;0.10;;;;;;;;;;4996137;28;20301;-72
2023/03/13 05:28:24;;;;;;;0.10;0.10;;;;;;;;;;5005843;28;20392;-72
2023/03/13 05:30:50;;;;;;;0.10;0.10;;;;;;;;;;4996187;28;20249;-73
2023/03/13 05:33:19;;;;;;;0.13;0.13;;;;;;;;;;5005380;28;20222;-73
2023/03/13 05:35:45;;;;;;;0.10;0.10;;;;;;;;;;4996195;28;20262;-73
2023/03/13 05:38:12;;;;;;;0.10;0.10;;;;;;;;;;5005486;28;20262;-73
2023/03/13 05:40:38;;;;;;;1.30;1.30;;;;;;;;;;4996139;28;20311;-72
2023/03/13 05:43:05;;;;;;;0.10;0.10;;;;;;;;;;5005029;28;20215;-73
2023/03/13 05:45:31;;;;;;;0.20;0.20;;;;;;;;;;4996019;28;20310;-73
2023/03/13 05:47:58;;;;;;;0.20;0.20;;;;;;;;;;5004788;28;20276;-72
2023/03/13 05:50:26;;;;;;;1.80;1.70;;;;;;;;;;4996056;28;20495;-72
2023/03/13 05:52:52;;;;;;;0.10;0.10;;;;;;;;;;5004967;28;20229;-73
2023/03/13 05:55:19;;;;;;;0.10;0.10;;;;;;;;;;4995534;28;20236;-72
2023/03/13 05:57:46;;;;;;;0.10;0.10;;;;;;;;;;5005008;28;20222;-72
2023/03/13 06:00:13;;;;;;;0.10;0.10;;;;;;;;;;4995806;28;20213;-72
2023/03/13 06:02:39;;;;;;;0.10;0.10;;;;;;;;;;5004799;28;20251;-72
2023/03/13 06:05:06;;;;;;;0.13;0.13;;;;;;;;;;5005626;28;20283;-72
2023/03/13 06:07:34;;;;;;;0.10;0.10;;;;;;;;;;4978174;28;20237;-73
2023/03/13 06:10:00;;;;;;;0.10;0.10;;;;;;;;;;5005562;28;20280;-72
2023/03/13 06:12:26;;;;;;;0.10;0.10;;;;;;;;;;4994446;28;20433;-72
2023/03/13 06:14:53;;;;;;;0.10;0.10;;;;;;;;;;5005445;28;20215;-72
2023/03/13 06:17:19;;;;;;;0.10;0.10;;;;;;;;;;4994322;28;20254;-72
2023/03/13 06:19:46;;;;;;;0.20;0.20;;;;;;;;;;5005301;28;20247;-72
2023/03/13 06:22:12;;;;;;;0.10;0.10;;;;;;;;;;4994377;28;20311;-72
2023/03/13 06:24:40;;;;;;;0.10;0.10;;;;;;;;;;5005237;28;20245;-73
2023/03/13 06:27:07;;;;;;;0.10;0.10;;;;;;;;;;4994244;28;20257;-73
2023/03/13 06:29:33;;;;;;;0.10;0.10;;;;;;;;;;5005222;28;20276;-73
2023/03/13 06:32:00;;;;;;;0.30;0.30;;;;;;;;;;4994185;28;20235;-73
2023/03/13 06:34:26;;;;;;;0.10;0.10;;;;;;;;;;5005147;28;20235;-73
2023/03/13 06:36:52;;;;;;;1.53;0.47;;;;;;;;;;4994153;28;20314;-73
2023/03/13 06:39:19;;;;;;;0.10;0.10;;;;;;;;;;5004726;28;20231;-72
2023/03/13 06:41:46;;;;;;;0.10;0.10;;;;;;;;;;4994203;28;20247;-72
2023/03/13 06:44:13;;;;;;;0.20;0.20;;;;;;;;;;5004819;28;20228;-72
2023/03/13 06:46:39;;;;;;;0.10;0.10;;;;;;;;;;4994003;28;20252;-72
2023/03/13 06:49:06;;;;;;;0.10;0.10;;;;;;;;;;5004355;28;20247;-72
2023/03/13 06:51:32;;;;;;;0.10;0.10;;;;;;;;;;4994032;28;20305;-72
2023/03/13 06:53:59;;;;;;;0.10;0.10;;;;;;;;;;5004478;28;20275;-72
2023/03/13 06:56:25;;;;;;;0.10;0.10;;;;;;;;;;4993967;28;20264;-73
2023/03/13 06:58:53;;;;;;;0.10;0.10;;;;;;;;;;5004183;28;20206;-72
2023/03/13 07:01:19;;;;;;;0.10;0.10;;;;;;;;;;4994127;28;20501;-72
2023/03/13 07:03:47;;;;;;;0.10;0.10;;;;;;;;;;5004022;28;20208;-73
2023/03/13 07:06:13;;;;;;;0.10;0.10;;;;;;;;;;4994253;28;20268;-72
2023/03/13 07:08:40;;;;;;;0.10;0.10;;;;;;;;;;5004169;28;20477;-72
2023/03/13 07:11:07;;;;;;;0.53;0.20;;;;;;;;;;4994124;28;20256;-72
2023/03/13 07:13:34;;;;;;;0.10;0.10;;;;;;;;;;5003710;28;20469;-72
2023/03/13 07:16:03;;;;;;;0.27;0.27;;;;;;;;;;4994171;28;20513;-72
2023/03/13 07:18:29;;;;;;;0.17;0.17;;;;;;;;;;5003271;28;20258;-72
2023/03/13 07:20:56;;;;;;;0.10;0.10;;;;;;;;;;4994090;28;20265;-73
2023/03/13 07:23:22;;;;;;;0.10;0.10;;;;;;;;;;5003829;28;20203;-72
2023/03/13 07:25:53;;;;;;;0.10;0.10;;;;;;;;;;4994188;28;20241;-73
2023/03/13 07:28:19;;;;;;;0.10;0.10;;;;;;;;;;5003718;28;20251;-73
2023/03/13 07:30:45;;;;;;;0.10;0.10;;;;;;;;;;4994147;28;20241;-72
2023/03/13 07:33:13;;;;;;;0.10;0.10;;;;;;;;;;5003496;28;20256;-73
2023/03/13 07:35:39;;;;;;;0.10;0.10;;;;;;;;;;4994117;28;20263;-72
2023/03/13 07:38:06;;;;;;;0.10;0.10;;;;;;;;;;5003494;28;20371;-73
2023/03/13 07:40:32;;;;;;;0.10;0.10;;;;;;;;;;4994144;28;20248;-72
2023/03/13 07:42:58;;;;;;;0.10;0.10;;;;;;;;;;5003407;28;20261;-71
2023/03/13 07:45:25;;;;;;;0.10;0.10;;;;;;;;;;4994266;28;20525;-70
2023/03/13 07:47:51;;;;;;;0.10;0.10;;;;;;;;;;5003291;28;20466;-71
2023/03/13 07:50:19;;;;;;;0.20;0.20;;;;;;;;;;4994111;28;20233;-75
2023/03/13 07:52:45;;;;;;;0.10;0.10;;;;;;;;;;5002928;28;20244;-71
2023/03/13 07:55:12;;;;;;;0.10;0.10;;;;;;;;;;4993825;28;20265;-75
2023/03/13 07:57:38;;;;;;;0.10;0.10;;;;;;;;;;5003111;28;20466;-74
2023/03/13 08:00:09;;;;;;;0.10;0.10;;;;;;;;;;5004092;28;20213;-71
2023/03/13 08:02:35;;;;;;;0.10;0.10;;;;;;;;;;4976541;28;20214;-72
2023/03/13 08:05:01;;;;;;;0.10;0.10;;;;;;;;;;5003887;28;20234;-73
2023/03/13 08:07:29;;;;;;;0.10;0.10;;;;;;;;;;4992929;28;20258;-76
2023/03/13 08:09:56;;;;;;;0.10;0.10;;;;;;;;;;5003854;28;20282;-74
2023/03/13 08:12:22;;;;;;;0.10;0.10;;;;;;;;;;4992826;28;20254;-74
2023/03/13 08:14:51;;;;;;;0.10;0.10;;;;;;;;;;5004008;28;20206;-73
2023/03/13 08:17:17;;;;;;;0.10;0.10;;;;;;;;;;4992820;28;20253;-73
2023/03/13 08:19:44;;;;;;;0.10;0.10;;;;;;;;;;5003955;28;20214;-73
2023/03/13 08:22:10;;;;;;;0.10;0.10;;;;;;;;;;4992771;28;20338;-73
2023/03/13 08:24:38;;;;;;;0.10;0.10;;;;;;;;;;5003692;28;20213;-73
2023/03/13 08:27:04;;;;;;;0.10;0.10;;;;;;;;;;4992650;28;20242;-72
2023/03/13 08:29:30;;;;;;;0.10;0.10;;;;;;;;;;5003834;28;20210;-73
2023/03/13 08:31:57;;;;;;;0.10;0.10;;;;;;;;;;4996000;28;20273;-73
2023/03/13 08:34:23;;;;;;;0.10;0.10;;;;;;;;;;5007179;28;20232;-73
2023/03/13 08:36:51;;;;;;;0.10;0.10;;;;;;;;;;4996415;28;20272;-73
2023/03/13 08:39:19;;;;;;;0.10;0.10;;;;;;;;;;5006961;28;20210;-73
2023/03/13 08:41:47;;;;;;;0.10;0.10;;;;;;;;;;4996467;28;20448;-73
2023/03/13 08:44:13;;;;;;;0.10;0.10;;;;;;;;;;5006788;28;20242;-73
2023/03/13 08:46:40;;;;;;;0.10;0.10;;;;;;;;;;4996240;28;20257;-73
2023/03/13 08:49:07;;;;;;;0.10;0.10;;;;;;;;;;5006932;28;20206;-73
2023/03/13 08:51:33;;;;;;;0.10;0.10;;;;;;;;;;4996435;28;20607;-73
2023/03/13 08:54:00;;;;;;;0.10;0.10;;;;;;;;;;5006427;28;20402;-73
2023/03/13 08:56:29;;;;;;;0.10;0.10;;;;;;;;;;4996078;28;20305;-73
2023/03/13 08:58:58;;;;;;;0.10;0.10;;;;;;;;;;5006209;28;20209;-73
2023/03/13 09:01:25;;;;;;;0.10;0.10;;;;;;;;;;4996158;28;20242;-73
2023/03/13 09:03:52;;;;;;;0.10;0.10;;;;;;;;;;5006299;28;20274;-73
2023/03/13 09:06:18;;;;;;;0.10;0.10;;;;;;;;;;4996172;28;20289;-73
2023/03/13 09:08:45;;;;;;;0.10;0.10;;;;;;;;;;5006127;28;20281;-70
2023/03/13 09:11:12;;;;;;;0.10;0.10;;;;;;;;;;4996260;28;20241;-71
2023/03/13 09:13:40;;;;;;;0.10;0.10;;;;;;;;;;5005913;28;20261;-70
2023/03/13 09:16:09;;;;;;;0.10;0.10;;;;;;;;;;4996227;28;20277;-70
2023/03/13 09:18:36;;;;;;;0.10;0.10;;;;;;;;;;5006131;28;20208;-70
2023/03/13 09:21:03;;;;;;;0.10;0.10;;;;;;;;;;4996131;28;20309;-71
2023/03/13 09:23:29;;;;;;;0.10;0.10;;;;;;;;;;5006025;28;20450;-71
2023/03/13 09:25:57;;;;;;;0.10;0.10;;;;;;;;;;4996105;28;20245;-60
2023/03/13 09:28:24;;;;;;;0.10;0.10;;;;;;;;;;5005769;28;20274;-60
2023/03/13 09:30:50;;;;;;;0.10;0.10;;;;;;;;;;4996106;28;20243;-61
2023/03/13 09:33:18;;;;;;;0.10;0.10;;;;;;;;;;5005541;28;20226;-72
2023/03/13 09:35:49;;;;;;;0.10;0.10;;;;;;;;;;4996297;28;20258;-74
2023/03/13 09:38:15;;;;;;;0.10;0.10;;;;;;;;;;5005581;28;20208;-72
2023/03/13 09:40:45;;;;;;;0.10;0.10;;;;;;;;;;4995887;28;20281;-74
2023/03/13 09:43:19;;;;;;;0.10;0.10;;;;;;;;;;5005075;28;20268;-73
2023/03/13 09:45:47;;;;;;;0.10;0.10;;;;;;;;;;4995944;28;20306;-73
2023/03/13 09:48:28;;;;;;;0.10;0.10;;;;;;;;;;5005174;28;20207;-73
2023/03/13 09:51:00;;;;;;;0.10;0.10;;;;;;;;;;4995670;28;20242;-71
2023/03/13 09:53:30;;;;;;;0.10;0.10;;;;;;;;;;5005374;28;20256;-72
2023/03/13 09:55:57;;;;;;;0.10;0.10;;;;;;;;;;4995468;28;20259;-71
2023/03/13 09:58:25;;;;;;;0.10;0.10;;;;;;;;;;5005053;28;20207;-71
2023/03/13 10:00:54;;;;;;;0.10;0.10;;;;;;;;;;4995646;28;20479;-71
2023/03/13 10:03:22;;;;;;;0.10;0.10;;;;;;;;;;5004894;28;20275;-72
2023/03/13 10:05:49;;;;;;;0.10;0.10;;;;;;;;;;4995696;28;20263;-71
2023/03/13 10:08:18;;;;;;;0.10;0.10;;;;;;;;;;5005126;28;20534;-72
2023/03/13 10:10:47;;;;;;;0.10;0.10;;;;;;;;;;4995601;28;20450;-71
2023/03/13 10:13:17;;;;;;;0.13;0.13;;;;;;;;;;5004636;28;20230;-72
2023/03/13 10:15:46;;;;;;;0.10;0.10;;;;;;;;;;4995164;28;20314;-71
2023/03/13 10:18:15;;;;;;;0.10;0.10;;;;;;;;;;5004600;28;20209;-72
2023/03/13 10:20:42;;;;;;;0.10;0.10;;;;;;;;;;4995282;28;20279;-72
2023/03/13 10:23:13;;;;;;;0.10;0.10;;;;;;;;;;5004806;28;20441;-72
2023/03/13 10:25:40;;;;;;;0.10;0.10;;;;;;;;;;4995352;28;20330;-71
2023/03/13 10:28:10;;;;;;;0.10;0.10;;;;;;;;;;5004658;28;20510;-72
2023/03/13 10:30:38;;;;;;;0.10;0.10;;;;;;;;;;4994883;28;20271;-72
2023/03/13 10:33:17;;;;;;;0.10;0.10;;;;;;;;;;5004399;28;20549;-72
2023/03/13 10:35:44;;;;;;;0.10;0.10;;;;;;;;;;4995036;28;20244;-71
2023/03/13 10:38:11;;;;;;;0.10;0.10;;;;;;;;;;5004240;28;20209;-72
2023/03/13 10:40:38;;;;;;;0.10;0.10;;;;;;;;;;4994674;28;20252;-72
2023/03/13 10:43:07;;;;;;;0.20;0.20;;;;;;;;;;5004336;28;20271;-72
2023/03/13 10:45:35;;;;;;;0.10;0.10;;;;;;;;;;4995005;28;20265;-58
2023/03/13 10:48:03;;;;;;;0.10;0.10;;;;;;;;;;5004210;28;20218;-64
2023/03/13 10:50:33;;;;;;;0.10;0.10;;;;;;;;;;4994882;28;20438;-71
2023/03/13 10:53:07;;;;;;;0.10;0.10;;;;;;;;;;5003061;28;20264;-71
2023/03/13 10:55:34;;;;;;;0.10;0.10;;;;;;;;;;4994546;28;20292;-72
2023/03/13 10:58:01;;;;;;;0.10;0.10;;;;;;;;;;5004097;28;20489;-71
2023/03/13 11:00:32;;;;;;;0.10;0.10;;;;;;;;;;4994925;28;20255;-72
2023/03/13 11:02:59;;;;;;;0.10;0.10;;;;;;;;;;5004059;28;20196;-71
2023/03/13 11:05:46;;;;;;;0.53;0.53;;;;;;;;;;4994669;28;20239;-71
2023/03/13 11:08:21;;;;;;;0.20;0.20;;;;;;;;;;4997748;28;20211;-71
2023/03/13 11:10:53;;;;;;;0.10;0.10;;;;;;;;;;4994391;28;20278;-71
2023/03/13 11:13:27;;;;;;;0.10;0.10;;;;;;;;;;5003637;28;20222;-71
2023/03/13 11:15:57;;;;;;;0.10;0.10;;;;;;;;;;4994339;28;20304;-71
2023/03/13 11:18:26;;;;;;;0.10;0.10;;;;;;;;;;5003980;28;20464;-71
2023/03/13 11:20:53;;;;;;;0.10;0.10;;;;;;;;;;4994148;28;20242;-73
2023/03/13 11:23:22;;;;;;;0.10;0.10;;;;;;;;;;5003798;28;20237;-73
2023/03/13 11:25:52;;;;;;;4.90;4.60;;;;;;;;;;4994191;28;20259;-73
2023/03/13 11:28:39;;;;;;;0.10;0.10;;;;;;;;;;5003753;28;20323;-73
2023/03/13 11:31:13;;;;;;;0.03;0.03;;;;;;;;;;4993926;28;20241;-73
2023/03/13 11:33:46;;;;;;;0.10;0.10;;;;;;;;;;5003864;28;20465;-71
2023/03/13 11:36:17;;;;;;;0.10;0.10;;;;;;;;;;4993908;28;20269;-73
2023/03/13 11:38:46;;;;;;;0.10;0.10;;;;;;;;;;5003909;28;20455;-72
2023/03/13 11:41:18;;;;;;;0.10;0.10;;;;;;;;;;4993852;28;20242;-74
2023/03/13 11:43:52;;;;;;;0.10;0.10;;;;;;;;;;5003870;28;20449;-73
2023/03/13 11:46:38;;;;;;;0.10;0.10;;;;;;;;;;4993693;28;20269;-58
2023/03/13 11:49:19;;;;;;;0.10;0.10;;;;;;;;;;5003602;28;20237;-61
2023/03/13 11:51:51;;;;;;;0.10;0.10;;;;;;;;;;4976924;28;20242;-72
2023/03/13 11:54:32;;;;;;;0.03;0.03;;;;;;;;;;5003592;28;20290;-73
2023/03/13 11:57:00;;;;;;;0.20;0.20;;;;;;;;;;4989622;28;20250;-73
2023/03/13 11:59:30;;;;;;;0.10;0.10;;;;;;;;;;5003775;28;20209;-72
2023/03/13 12:02:00;;;;;;;0.10;0.10;;;;;;;;;;4993119;28;20258;-72
2023/03/13 12:04:29;;;;;;;0.20;0.20;;;;;;;;;;5004734;28;20272;-73
2023/03/13 12:06:59;;;;;;;0.10;0.10;;;;;;;;;;4996956;28;20242;-70
2023/03/13 12:09:27;;;;;;;0.08;0.08;;;;;;;;;;5007874;28;20256;-74
2023/03/13 12:11:58;;;;;;;0.00;0.00;;;;;;;;;;4996910;28;20305;-59
2023/03/13 12:14:26;;;;;;;0.10;0.10;;;;;;;;;;5008093;28;20292;-57
2023/03/13 12:16:54;;;;;;;0.00;0.00;;;;;;;;;;4997091;28;20254;-53
2023/03/13 12:19:27;;;;;;;0.20;0.20;;;;;;;;;;5007616;28;20493;-55
2023/03/13 12:21:54;;;;;;;0.00;0.00;;;;;;;;;;4996771;28;20262;-57
2023/03/13 12:24:25;;;;;;;0.10;0.10;;;;;;;;;;5007778;28;20489;-62
2023/03/13 12:26:54;;;;;;;0.10;0.10;;;;;;;;;;4997175;28;20246;-58
2023/03/13 12:29:26;;;;;;;0.10;0.10;;;;;;;;;;5007661;28;20240;-67
2023/03/13 12:31:54;;;;;;;0.10;0.10;;;;;;;;;;4998534;28;20298;-72
2023/03/13 12:34:26;;;;;;;0.75;0.75;;;;;;;;;;5008470;28;20248;-66
2023/03/13 12:36:54;;;;;;;0.10;0.10;;;;;;;;;;4997225;28;20245;-70
2023/03/13 12:39:26;;;;;;;0.10;0.10;;;;;;;;;;5007959;28;20431;-65
2023/03/13 12:41:57;;;;;;;0.03;0.03;;;;;;;;;;4996607;28;20256;-67
2023/03/13 12:44:23;;;;;;;0.10;0.10;;;;;;;;;;5007742;28;20207;-66
2023/03/13 12:46:58;;;;;;;0.10;0.10;;;;;;;;;;4997122;28;20238;-67
2023/03/13 12:49:41;;;;;;;0.10;0.10;;;;;;;;;;5007998;28;20286;-68
2023/03/13 12:52:34;;;;;;;0.20;0.20;;;;;;;;;;4997133;28;20262;-69
2023/03/13 12:55:13;;;;;;;0.10;0.10;;;;;;;;;;5007178;28;20281;-68
2023/03/13 12:58:01;;;;;;;0.10;0.10;;;;;;;;;;4980032;28;20269;-69
2023/03/13 13:00:29;;;;;;;0.10;0.10;;;;;;;;;;4997413;28;20255;-70
2023/03/13 13:03:03;;;;;;;0.10;0.10;;;;;;;;;;5006962;28;20226;-73
2023/03/13 13:05:30;;;;;;;0.10;0.10;;;;;;;;;;4998065;28;20573;-71
2023/03/13 13:07:57;;;;;;;0.10;0.10;;;;;;;;;;5007339;28;20260;-71
2023/03/13 13:10:25;;;;;;;0.05;0.05;;;;;;;;;;4997988;28;20240;-63
2023/03/13 13:13:06;;;;;;;0.10;0.10;;;;;;;;;;5005975;28;20443;-59
2023/03/13 13:15:33;;;;;;;0.10;0.10;;;;;;;;;;4979974;28;20246;-64
2023/03/13 13:18:13;;;;;;;0.30;0.30;;;;;;;;;;5005608;28;20268;-63
2023/03/13 14:17:13;;;;;;;0.10;0.10;;;;;;;;;;5072213;27;20603;-66
2023/03/13 14:19:41;;;;;;;0.13;0.13;;;;;;;;;;5060851;28;20224;-70
2023/03/13 14:22:08;;;;;;;0.10;0.10;;;;;;;;;;5066104;28;20307;-70
2023/03/13 14:24:35;;;;;;;0.10;0.10;;;;;;;;;;5060978;28;20241;-70
2023/03/13 14:27:01;;;;;;;0.10;0.10;;;;;;;;;;5065195;28;20302;-70
2023/03/13 14:29:28;;;;;;;0.10;0.10;;;;;;;;;;5061421;28;20212;-70
2023/03/13 14:31:55;;;;;;;0.10;0.10;;;;;;;;;;5064180;28;20242;-71
2023/03/13 14:34:23;;;;;;;0.03;0.03;;;;;;;;;;5062141;28;20227;-72
2023/03/13 14:36:50;;;;;;;0.10;0.10;;;;;;;;;;5063358;28;20448;-73
2023/03/13 14:39:18;;;;;;;0.10;0.10;;;;;;;;;;5062761;28;20223;-68
2023/03/13 14:41:46;;;;;;;0.10;0.10;;;;;;;;;;5062856;28;20306;-69
2023/03/13 14:44:14;;;;;;;0.10;0.10;;;;;;;;;;5063414;28;20634;-70
2023/03/13 14:46:41;;;;;;;0.10;0.10;;;;;;;;;;5062208;28;20580;-68
2023/03/13 14:49:13;;;;;;;0.10;0.10;;;;;;;;;;5063461;28;20405;-71
2023/03/13 14:51:40;;;;;;;0.10;0.10;;;;;;;;;;5061874;28;20246;-70
2023/03/13 14:54:24;;;;;;;0.10;0.10;;;;;;;;;;5063549;28;20271;-68
2023/03/13 14:57:01;;;;;;;0.08;0.08;;;;;;;;;;5063027;28;20272;-68
2023/03/13 14:59:28;;;;;;;0.10;0.10;;;;;;;;;;5061080;28;20387;-70
2023/03/13 15:01:59;;;;;;;0.10;0.10;;;;;;;;;;5063588;28;20239;-68
2023/03/13 15:04:40;;;;;;;0.10;0.10;;;;;;;;;;5060919;28;20211;-68
2023/03/13 15:07:08;;;;;;;0.10;0.10;;;;;;;;;;5064990;28;20251;-69
2023/03/13 15:09:41;;;;;;;0.05;0.05;;;;;;;;;;5060260;28;20491;-68
2023/03/13 15:12:13;;;;;;;0.10;0.10;;;;;;;;;;5065100;28;20241;-67
2023/03/13 15:14:40;;;;;;;0.10;0.10;;;;;;;;;;5060144;28;20200;-66
2023/03/13 15:17:17;;;;;;;0.10;0.10;;;;;;;;;;5064701;28;20489;-65
2023/03/13 15:19:47;;;;;;;0.10;0.10;;;;;;;;;;5059700;28;20205;-67
2023/03/13 15:22:16;;;;;;;0.10;0.10;;;;;;;;;;5064941;28;20251;-67
2023/03/13 15:24:42;;;;;;;0.20;0.20;;;;;;;;;;5059838;28;20204;-67
2023/03/13 15:27:14;;;;;;;0.10;0.10;;;;;;;;;;5059334;28;20240;-67
2023/03/13 15:29:41;;;;;;;0.00;0.00;;;;;;;;;;5046521;28;20193;-67
2023/03/13 15:32:09;;;;;;;0.10;0.10;;;;;;;;;;5051669;28;20336;-66
2023/03/13 15:34:35;;;;;;;0.10;0.10;;;;;;;;;;5046426;28;20280;-65
2023/03/13 15:37:02;;;;;;;0.10;0.10;;;;;;;;;;5050713;28;20253;-67
2023/03/13 15:39:30;;;;;;;0.00;0.00;;;;;;;;;;5046977;28;20487;-67
2023/03/13 15:41:56;;;;;;;0.10;0.10;;;;;;;;;;5049921;28;20235;-65
2023/03/13 15:44:22;;;;;;;0.10;0.10;;;;;;;;;;5047276;28;20233;-67
2023/03/13 15:46:49;;;;;;;0.10;0.10;;;;;;;;;;5048971;28;20397;-67